sensor_id;sensor_type;location;lat;lon;timestamp;P1;durP1;ratioP1;P2;durP2;ratioP2
11222;SDS011;5668;52.012;8.724;2022-07-29T00:02:01;2.28;;;1.30;;
11222;SDS011;5668;52.012;8.724;2022-07-29T00:04:28;1.50;;;1.00;;
11222;SDS011;5668;52.012;8.724;2022-07-29T00:06:55;2.03;;;1.00;;
11222;SDS011;5668;52.012;8.724;2022-07-29T00:09:22;2.22;;;1.30;;
11222;SDS011;5668;52.012;8.724;2022-07-29T00:11:50;2.47;;;1.23;;
11222;SDS011;5668;52.012;8.724;2022-07-29T00:14:17;2.63;;;1.00;;
11222;SDS011;5668;52.012;8.724;2022-07-29T00:16:46;4.50;;;1.27;;
11222;SDS011;5668;52.012;8.724;2022-07-29T00:19:13;2.22;;;1.00;;
11222;SDS011;5668;52.012;8.724;2022-07-29T00:21:40;1.60;;;1.13;;
11222;SDS011;5668;52.012;8.724;2022-07-29T00:24:07;2.22;;;1.30;;
11222;SDS011;5668;52.012;8.724;2022-07-29T00:26:35;2.42;;;1.00;;
11222;SDS011;5668;52.012;8.724;2022-07-29T00:29:02;2.83;;;1.10;;
11222;SDS011;5668;52.012;8.724;2022-07-29T00:31:30;1.58;;;1.08;;
11222;SDS011;5668;52.012;8.724;2022-07-29T00:33:59;2.28;;;1.10;;
11222;SDS011;5668;52.012;8.724;2022-07-29T00:36:27;2.30;;;1.08;;
11222;SDS011;5668;52.012;8.724;2022-07-29T00:38:54;2.38;;;1.10;;
11222;SDS011;5668;52.012;8.724;2022-07-29T00:41:21;1.90;;;1.08;;
11222;SDS011;5668;52.012;8.724;2022-07-29T00:43:48;2.25;;;1.30;;
11222;SDS011;5668;52.012;8.724;2022-07-29T00:46:15;1.50;;;1.00;;
11222;SDS011;5668;52.012;8.724;2022-07-29T00:48:42;5.20;;;1.42;;
11222;SDS011;5668;52.012;8.724;2022-07-29T00:51:11;2.90;;;1.30;;
11222;SDS011;5668;52.012;8.724;2022-07-29T00:53:39;2.17;;;1.20;;
11222;SDS011;5668;52.012;8.724;2022-07-29T00:56:07;2.72;;;1.20;;
11222;SDS011;5668;52.012;8.724;2022-07-29T00:58:34;2.00;;;1.10;;
11222;SDS011;5668;52.012;8.724;2022-07-29T01:01:02;1.70;;;1.10;;
11222;SDS011;5668;52.012;8.724;2022-07-29T01:03:29;1.67;;;0.93;;
11222;SDS011;5668;52.012;8.724;2022-07-29T01:05:56;2.13;;;1.13;;
11222;SDS011;5668;52.012;8.724;2022-07-29T01:08:25;2.08;;;0.95;;
11222;SDS011;5668;52.012;8.724;2022-07-29T01:10:52;4.15;;;1.35;;
11222;SDS011;5668;52.012;8.724;2022-07-29T01:13:21;4.78;;;1.23;;
11222;SDS011;5668;52.012;8.724;2022-07-29T01:15:49;2.05;;;1.20;;
11222;SDS011;5668;52.012;8.724;2022-07-29T01:18:21;2.08;;;0.93;;
11222;SDS011;5668;52.012;8.724;2022-07-29T01:20:58;3.00;;;1.08;;
11222;SDS011;5668;52.012;8.724;2022-07-29T01:23:51;4.18;;;1.35;;
11222;SDS011;5668;52.012;8.724;2022-07-29T01:26:42;3.03;;;1.25;;
11222;SDS011;5668;52.012;8.724;2022-07-29T01:29:19;3.85;;;1.20;;
11222;SDS011;5668;52.012;8.724;2022-07-29T01:31:54;3.25;;;1.20;;
11222;SDS011;5668;52.012;8.724;2022-07-29T01:34:27;2.47;;;1.20;;
11222;SDS011;5668;52.012;8.724;2022-07-29T01:37:03;2.40;;;1.00;;
11222;SDS011;5668;52.012;8.724;2022-07-29T01:39:39;2.03;;;1.00;;
11222;SDS011;5668;52.012;8.724;2022-07-29T01:42:10;1.40;;;0.90;;
11222;SDS011;5668;52.012;8.724;2022-07-29T01:44:45;4.25;;;1.17;;
11222;SDS011;5668;52.012;8.724;2022-07-29T01:47:20;1.73;;;1.10;;
11222;SDS011;5668;52.012;8.724;2022-07-29T01:49:53;4.47;;;1.10;;
11222;SDS011;5668;52.012;8.724;2022-07-29T01:52:23;2.47;;;1.20;;
11222;SDS011;5668;52.012;8.724;2022-07-29T01:55:09;2.03;;;0.80;;
11222;SDS011;5668;52.012;8.724;2022-07-29T01:57:39;2.47;;;1.00;;
11222;SDS011;5668;52.012;8.724;2022-07-29T02:00:12;2.65;;;1.20;;
11222;SDS011;5668;52.012;8.724;2022-07-29T02:02:41;2.40;;;0.90;;
11222;SDS011;5668;52.012;8.724;2022-07-29T02:05:10;3.10;;;1.40;;
11222;SDS011;5668;52.012;8.724;2022-07-29T02:07:40;2.05;;;0.90;;
11222;SDS011;5668;52.012;8.724;2022-07-29T02:10:10;3.17;;;1.20;;
11222;SDS011;5668;52.012;8.724;2022-07-29T02:12:54;6.47;;;1.10;;
11222;SDS011;5668;52.012;8.724;2022-07-29T02:15:25;3.47;;;1.10;;
11222;SDS011;5668;52.012;8.724;2022-07-29T02:17:58;3.72;;;1.40;;
11222;SDS011;5668;52.012;8.724;2022-07-29T02:20:28;2.95;;;1.25;;
11222;SDS011;5668;52.012;8.724;2022-07-29T02:22:56;3.95;;;1.27;;
11222;SDS011;5668;52.012;8.724;2022-07-29T02:25:25;1.98;;;1.23;;
11222;SDS011;5668;52.012;8.724;2022-07-29T02:27:53;3.67;;;1.17;;
11222;SDS011;5668;52.012;8.724;2022-07-29T02:30:21;2.53;;;1.10;;
11222;SDS011;5668;52.012;8.724;2022-07-29T02:32:51;2.55;;;1.17;;
11222;SDS011;5668;52.012;8.724;2022-07-29T02:35:20;2.55;;;1.10;;
11222;SDS011;5668;52.012;8.724;2022-07-29T02:37:48;3.22;;;1.30;;
11222;SDS011;5668;52.012;8.724;2022-07-29T02:40:32;3.20;;;1.30;;
11222;SDS011;5668;52.012;8.724;2022-07-29T02:43:03;2.67;;;1.02;;
11222;SDS011;5668;52.012;8.724;2022-07-29T02:45:34;1.50;;;1.10;;
11222;SDS011;5668;52.012;8.724;2022-07-29T02:48:04;2.60;;;1.13;;
11222;SDS011;5668;52.012;8.724;2022-07-29T02:50:37;2.38;;;1.02;;
11222;SDS011;5668;52.012;8.724;2022-07-29T02:53:12;3.42;;;1.05;;
11222;SDS011;5668;52.012;8.724;2022-07-29T02:55:43;4.22;;;1.20;;
11222;SDS011;5668;52.012;8.724;2022-07-29T02:58:13;1.92;;;1.20;;
11222;SDS011;5668;52.012;8.724;2022-07-29T03:00:47;4.03;;;1.42;;
11222;SDS011;5668;52.012;8.724;2022-07-29T03:03:18;1.65;;;1.10;;
11222;SDS011;5668;52.012;8.724;2022-07-29T03:05:46;2.65;;;1.10;;
11222;SDS011;5668;52.012;8.724;2022-07-29T03:08:14;2.53;;;1.10;;
11222;SDS011;5668;52.012;8.724;2022-07-29T03:10:43;4.03;;;1.20;;
11222;SDS011;5668;52.012;8.724;2022-07-29T03:13:12;1.70;;;1.10;;
11222;SDS011;5668;52.012;8.724;2022-07-29T03:15:41;3.38;;;1.42;;
11222;SDS011;5668;52.012;8.724;2022-07-29T03:18:11;2.45;;;1.20;;
11222;SDS011;5668;52.012;8.724;2022-07-29T03:20:39;3.40;;;1.40;;
11222;SDS011;5668;52.012;8.724;2022-07-29T03:23:07;1.58;;;1.10;;
11222;SDS011;5668;52.012;8.724;2022-07-29T03:25:34;3.10;;;1.10;;
11222;SDS011;5668;52.012;8.724;2022-07-29T03:28:02;3.53;;;1.20;;
11222;SDS011;5668;52.012;8.724;2022-07-29T03:30:29;3.78;;;1.20;;
11222;SDS011;5668;52.012;8.724;2022-07-29T03:32:57;3.60;;;1.27;;
11222;SDS011;5668;52.012;8.724;2022-07-29T03:35:25;2.58;;;1.17;;
11222;SDS011;5668;52.012;8.724;2022-07-29T03:37:53;4.60;;;1.23;;
11222;SDS011;5668;52.012;8.724;2022-07-29T03:40:22;2.47;;;1.25;;
11222;SDS011;5668;52.012;8.724;2022-07-29T03:42:53;2.67;;;1.15;;
11222;SDS011;5668;52.012;8.724;2022-07-29T03:45:21;4.80;;;1.25;;
11222;SDS011;5668;52.012;8.724;2022-07-29T03:47:50;3.25;;;1.30;;
11222;SDS011;5668;52.012;8.724;2022-07-29T03:50:21;1.55;;;1.00;;
11222;SDS011;5668;52.012;8.724;2022-07-29T03:52:50;1.35;;;1.17;;
11222;SDS011;5668;52.012;8.724;2022-07-29T03:55:17;3.05;;;1.20;;
11222;SDS011;5668;52.012;8.724;2022-07-29T03:57:45;2.28;;;1.00;;
11222;SDS011;5668;52.012;8.724;2022-07-29T04:00:14;3.28;;;1.20;;
11222;SDS011;5668;52.012;8.724;2022-07-29T04:02:43;1.85;;;1.00;;
11222;SDS011;5668;52.012;8.724;2022-07-29T04:05:13;1.83;;;1.30;;
11222;SDS011;5668;52.012;8.724;2022-07-29T04:07:43;2.72;;;1.08;;
11222;SDS011;5668;52.012;8.724;2022-07-29T04:10:12;2.80;;;1.20;;
11222;SDS011;5668;52.012;8.724;2022-07-29T04:12:41;1.33;;;1.00;;
11222;SDS011;5668;52.012;8.724;2022-07-29T04:15:09;3.38;;;1.15;;
11222;SDS011;5668;52.012;8.724;2022-07-29T04:17:37;4.45;;;1.33;;
11222;SDS011;5668;52.012;8.724;2022-07-29T04:20:05;4.72;;;1.20;;
11222;SDS011;5668;52.012;8.724;2022-07-29T04:22:34;1.98;;;1.08;;
11222;SDS011;5668;52.012;8.724;2022-07-29T04:25:01;2.67;;;1.60;;
11222;SDS011;5668;52.012;8.724;2022-07-29T04:27:30;3.30;;;1.30;;
11222;SDS011;5668;52.012;8.724;2022-07-29T04:29:57;2.38;;;1.13;;
11222;SDS011;5668;52.012;8.724;2022-07-29T04:32:24;4.00;;;1.17;;
11222;SDS011;5668;52.012;8.724;2022-07-29T04:34:52;3.70;;;1.17;;
11222;SDS011;5668;52.012;8.724;2022-07-29T04:37:19;2.50;;;1.30;;
11222;SDS011;5668;52.012;8.724;2022-07-29T04:39:46;2.28;;;1.15;;
11222;SDS011;5668;52.012;8.724;2022-07-29T04:42:14;2.17;;;1.35;;
11222;SDS011;5668;52.012;8.724;2022-07-29T04:44:42;1.48;;;1.10;;
11222;SDS011;5668;52.012;8.724;2022-07-29T04:47:09;1.35;;;1.10;;
11222;SDS011;5668;52.012;8.724;2022-07-29T04:49:37;3.40;;;1.20;;
11222;SDS011;5668;52.012;8.724;2022-07-29T04:52:05;2.85;;;1.25;;
11222;SDS011;5668;52.012;8.724;2022-07-29T04:54:33;1.98;;;1.05;;
11222;SDS011;5668;52.012;8.724;2022-07-29T04:57:01;2.28;;;1.20;;
11222;SDS011;5668;52.012;8.724;2022-07-29T04:59:28;1.52;;;1.30;;
11222;SDS011;5668;52.012;8.724;2022-07-29T05:01:57;3.45;;;1.20;;
11222;SDS011;5668;52.012;8.724;2022-07-29T05:04:24;3.28;;;1.20;;
11222;SDS011;5668;52.012;8.724;2022-07-29T05:06:51;2.72;;;1.17;;
11222;SDS011;5668;52.012;8.724;2022-07-29T05:09:18;3.75;;;1.30;;
11222;SDS011;5668;52.012;8.724;2022-07-29T05:11:46;2.17;;;1.25;;
11222;SDS011;5668;52.012;8.724;2022-07-29T05:14:13;2.85;;;1.15;;
11222;SDS011;5668;52.012;8.724;2022-07-29T05:16:40;1.42;;;0.95;;
11222;SDS011;5668;52.012;8.724;2022-07-29T05:19:09;2.33;;;1.17;;
11222;SDS011;5668;52.012;8.724;2022-07-29T05:21:36;4.10;;;1.27;;
11222;SDS011;5668;52.012;8.724;2022-07-29T05:24:04;3.85;;;1.23;;
11222;SDS011;5668;52.012;8.724;2022-07-29T05:26:31;1.77;;;1.40;;
11222;SDS011;5668;52.012;8.724;2022-07-29T05:28:58;1.90;;;1.10;;
11222;SDS011;5668;52.012;8.724;2022-07-29T05:31:26;1.63;;;0.90;;
11222;SDS011;5668;52.012;8.724;2022-07-29T05:33:53;1.98;;;1.50;;
11222;SDS011;5668;52.012;8.724;2022-07-29T05:36:22;2.42;;;1.23;;
11222;SDS011;5668;52.012;8.724;2022-07-29T05:38:49;2.40;;;1.13;;
11222;SDS011;5668;52.012;8.724;2022-07-29T05:41:17;1.58;;;0.98;;
11222;SDS011;5668;52.012;8.724;2022-07-29T05:43:44;2.28;;;1.30;;
11222;SDS011;5668;52.012;8.724;2022-07-29T05:46:11;2.35;;;1.33;;
11222;SDS011;5668;52.012;8.724;2022-07-29T05:48:39;2.97;;;1.08;;
11222;SDS011;5668;52.012;8.724;2022-07-29T05:51:06;2.28;;;1.20;;
11222;SDS011;5668;52.012;8.724;2022-07-29T05:53:35;4.07;;;1.40;;
11222;SDS011;5668;52.012;8.724;2022-07-29T05:56:02;2.00;;;1.30;;
11222;SDS011;5668;52.012;8.724;2022-07-29T05:58:30;5.57;;;1.45;;
11222;SDS011;5668;52.012;8.724;2022-07-29T06:00:58;2.97;;;1.10;;
11222;SDS011;5668;52.012;8.724;2022-07-29T06:03:25;5.72;;;1.25;;
11222;SDS011;5668;52.012;8.724;2022-07-29T06:05:52;2.65;;;1.30;;
11222;SDS011;5668;52.012;8.724;2022-07-29T06:08:20;1.88;;;1.10;;
11222;SDS011;5668;52.012;8.724;2022-07-29T06:10:48;1.33;;;1.00;;
11222;SDS011;5668;52.012;8.724;2022-07-29T06:13:15;2.30;;;1.05;;
11222;SDS011;5668;52.012;8.724;2022-07-29T06:15:43;1.83;;;1.20;;
11222;SDS011;5668;52.012;8.724;2022-07-29T06:18:10;2.13;;;1.10;;
11222;SDS011;5668;52.012;8.724;2022-07-29T06:20:38;3.47;;;1.23;;
11222;SDS011;5668;52.012;8.724;2022-07-29T06:23:06;1.60;;;1.17;;
11222;SDS011;5668;52.012;8.724;2022-07-29T06:25:34;2.83;;;1.10;;
11222;SDS011;5668;52.012;8.724;2022-07-29T06:28:04;1.38;;;1.08;;
11222;SDS011;5668;52.012;8.724;2022-07-29T06:30:31;2.47;;;1.20;;
11222;SDS011;5668;52.012;8.724;2022-07-29T06:32:58;2.95;;;1.10;;
11222;SDS011;5668;52.012;8.724;2022-07-29T06:35:26;2.00;;;1.08;;
11222;SDS011;5668;52.012;8.724;2022-07-29T06:37:54;2.63;;;1.27;;
11222;SDS011;5668;52.012;8.724;2022-07-29T06:40:21;3.10;;;1.10;;
11222;SDS011;5668;52.012;8.724;2022-07-29T06:43:08;2.40;;;1.20;;
11222;SDS011;5668;52.012;8.724;2022-07-29T06:45:35;2.10;;;1.15;;
11222;SDS011;5668;52.012;8.724;2022-07-29T06:48:05;3.60;;;1.27;;
11222;SDS011;5668;52.012;8.724;2022-07-29T06:50:33;2.63;;;1.10;;
11222;SDS011;5668;52.012;8.724;2022-07-29T06:53:00;3.08;;;0.90;;
11222;SDS011;5668;52.012;8.724;2022-07-29T06:55:27;2.55;;;1.40;;
11222;SDS011;5668;52.012;8.724;2022-07-29T06:57:54;2.90;;;1.15;;
11222;SDS011;5668;52.012;8.724;2022-07-29T07:00:23;4.75;;;1.00;;
11222;SDS011;5668;52.012;8.724;2022-07-29T07:02:50;3.55;;;1.20;;
11222;SDS011;5668;52.012;8.724;2022-07-29T07:05:17;1.60;;;1.10;;
11222;SDS011;5668;52.012;8.724;2022-07-29T07:07:44;1.42;;;0.88;;
11222;SDS011;5668;52.012;8.724;2022-07-29T07:10:12;2.58;;;1.23;;
11222;SDS011;5668;52.012;8.724;2022-07-29T07:12:40;2.08;;;1.20;;
11222;SDS011;5668;52.012;8.724;2022-07-29T07:15:07;3.28;;;1.10;;
11222;SDS011;5668;52.012;8.724;2022-07-29T07:17:36;2.58;;;1.30;;
11222;SDS011;5668;52.012;8.724;2022-07-29T07:20:04;3.45;;;1.20;;
11222;SDS011;5668;52.012;8.724;2022-07-29T07:22:34;2.15;;;1.30;;
11222;SDS011;5668;52.012;8.724;2022-07-29T07:25:01;1.92;;;1.23;;
11222;SDS011;5668;52.012;8.724;2022-07-29T07:27:29;4.18;;;1.55;;
11222;SDS011;5668;52.012;8.724;2022-07-29T07:29:56;3.22;;;1.30;;
11222;SDS011;5668;52.012;8.724;2022-07-29T07:32:23;4.50;;;1.40;;
11222;SDS011;5668;52.012;8.724;2022-07-29T07:34:52;2.70;;;1.30;;
11222;SDS011;5668;52.012;8.724;2022-07-29T07:37:19;2.25;;;1.10;;
11222;SDS011;5668;52.012;8.724;2022-07-29T07:39:46;2.47;;;1.23;;
11222;SDS011;5668;52.012;8.724;2022-07-29T07:42:13;1.60;;;1.10;;
11222;SDS011;5668;52.012;8.724;2022-07-29T07:44:41;3.00;;;1.25;;
11222;SDS011;5668;52.012;8.724;2022-07-29T07:47:08;3.53;;;1.20;;
11222;SDS011;5668;52.012;8.724;2022-07-29T07:49:35;2.42;;;1.27;;
11222;SDS011;5668;52.012;8.724;2022-07-29T07:52:04;2.28;;;1.02;;
11222;SDS011;5668;52.012;8.724;2022-07-29T07:54:31;1.92;;;1.10;;
11222;SDS011;5668;52.012;8.724;2022-07-29T07:56:59;2.47;;;1.30;;
11222;SDS011;5668;52.012;8.724;2022-07-29T07:59:26;1.38;;;1.20;;
11222;SDS011;5668;52.012;8.724;2022-07-29T08:01:54;3.33;;;1.23;;
11222;SDS011;5668;52.012;8.724;2022-07-29T08:04:21;3.33;;;1.50;;
11222;SDS011;5668;52.012;8.724;2022-07-29T08:06:49;2.22;;;1.48;;
11222;SDS011;5668;52.012;8.724;2022-07-29T08:09:20;3.13;;;1.77;;
11222;SDS011;5668;52.012;8.724;2022-07-29T08:11:47;3.25;;;0.95;;
11222;SDS011;5668;52.012;8.724;2022-07-29T08:14:14;2.55;;;1.27;;
11222;SDS011;5668;52.012;8.724;2022-07-29T08:16:42;5.47;;;1.75;;
11222;SDS011;5668;52.012;8.724;2022-07-29T08:19:09;2.42;;;1.10;;
11222;SDS011;5668;52.012;8.724;2022-07-29T08:21:37;3.10;;;1.15;;
11222;SDS011;5668;52.012;8.724;2022-07-29T08:24:05;3.08;;;1.10;;
11222;SDS011;5668;52.012;8.724;2022-07-29T08:30:08;3.58;;;1.20;;
11222;SDS011;5668;52.012;8.724;2022-07-29T08:32:37;2.45;;;1.15;;
11222;SDS011;5668;52.012;8.724;2022-07-29T08:35:07;2.67;;;0.95;;
11222;SDS011;5668;52.012;8.724;2022-07-29T08:37:42;3.97;;;1.50;;
11222;SDS011;5668;52.012;8.724;2022-07-29T08:40:11;2.42;;;1.20;;
11222;SDS011;5668;52.012;8.724;2022-07-29T08:42:45;2.00;;;1.00;;
11222;SDS011;5668;52.012;8.724;2022-07-29T08:45:13;2.78;;;1.15;;
11222;SDS011;5668;52.012;8.724;2022-07-29T08:47:41;2.25;;;1.30;;
11222;SDS011;5668;52.012;8.724;2022-07-29T08:56:12;2.78;;;1.50;;
11222;SDS011;5668;52.012;8.724;2022-07-29T09:01:30;3.28;;;1.42;;
11222;SDS011;5668;52.012;8.724;2022-07-29T09:04:00;2.90;;;1.20;;
11222;SDS011;5668;52.012;8.724;2022-07-29T09:06:30;1.60;;;1.08;;
11222;SDS011;5668;52.012;8.724;2022-07-29T09:09:00;2.42;;;1.48;;
11222;SDS011;5668;52.012;8.724;2022-07-29T09:11:29;4.13;;;1.50;;
11222;SDS011;5668;52.012;8.724;2022-07-29T09:13:58;3.03;;;1.30;;
11222;SDS011;5668;52.012;8.724;2022-07-29T09:16:26;2.72;;;1.35;;
11222;SDS011;5668;52.012;8.724;2022-07-29T09:19:19;5.97;;;1.30;;
11222;SDS011;5668;52.012;8.724;2022-07-29T09:21:47;3.70;;;1.50;;
11222;SDS011;5668;52.012;8.724;2022-07-29T09:24:27;3.00;;;1.67;;
11222;SDS011;5668;52.012;8.724;2022-07-29T09:27:18;4.95;;;1.40;;
11222;SDS011;5668;52.012;8.724;2022-07-29T09:29:47;5.25;;;1.33;;
11222;SDS011;5668;52.012;8.724;2022-07-29T09:32:23;3.47;;;1.20;;
11222;SDS011;5668;52.012;8.724;2022-07-29T09:34:52;4.45;;;1.20;;
11222;SDS011;5668;52.012;8.724;2022-07-29T09:37:46;4.55;;;1.30;;
11222;SDS011;5668;52.012;8.724;2022-07-29T09:40:15;1.60;;;1.17;;
11222;SDS011;5668;52.012;8.724;2022-07-29T09:42:45;4.45;;;1.60;;
11222;SDS011;5668;52.012;8.724;2022-07-29T09:45:13;3.58;;;1.52;;
11222;SDS011;5668;52.012;8.724;2022-07-29T09:47:55;4.03;;;1.45;;
11222;SDS011;5668;52.012;8.724;2022-07-29T09:50:34;3.78;;;1.20;;
11222;SDS011;5668;52.012;8.724;2022-07-29T09:53:02;3.33;;;1.52;;
11222;SDS011;5668;52.012;8.724;2022-07-29T09:55:30;4.38;;;1.33;;
11222;SDS011;5668;52.012;8.724;2022-07-29T10:00:43;1.73;;;1.23;;
11222;SDS011;5668;52.012;8.724;2022-07-29T10:03:13;1.80;;;1.40;;
11222;SDS011;5668;52.012;8.724;2022-07-29T10:05:41;1.65;;;1.35;;
11222;SDS011;5668;52.012;8.724;2022-07-29T10:08:10;2.97;;;1.65;;
11222;SDS011;5668;52.012;8.724;2022-07-29T10:10:39;3.72;;;1.50;;
11222;SDS011;5668;52.012;8.724;2022-07-29T10:13:08;3.60;;;1.60;;
11222;SDS011;5668;52.012;8.724;2022-07-29T10:15:36;2.92;;;1.50;;
11222;SDS011;5668;52.012;8.724;2022-07-29T10:18:08;3.88;;;1.35;;
11222;SDS011;5668;52.012;8.724;2022-07-29T10:20:38;3.72;;;1.52;;
11222;SDS011;5668;52.012;8.724;2022-07-29T10:23:06;2.47;;;1.13;;
11222;SDS011;5668;52.012;8.724;2022-07-29T10:25:34;2.25;;;1.58;;
11222;SDS011;5668;52.012;8.724;2022-07-29T10:28:02;3.65;;;1.70;;
11222;SDS011;5668;52.012;8.724;2022-07-29T10:30:31;2.30;;;1.50;;
11222;SDS011;5668;52.012;8.724;2022-07-29T10:33:08;3.25;;;1.80;;
11222;SDS011;5668;52.012;8.724;2022-07-29T10:35:47;4.13;;;1.70;;
11222;SDS011;5668;52.012;8.724;2022-07-29T10:38:40;2.72;;;1.63;;
11222;SDS011;5668;52.012;8.724;2022-07-29T10:41:26;3.70;;;1.80;;
11222;SDS011;5668;52.012;8.724;2022-07-29T10:44:15;3.50;;;1.55;;
11222;SDS011;5668;52.012;8.724;2022-07-29T10:46:44;2.20;;;1.70;;
11222;SDS011;5668;52.012;8.724;2022-07-29T10:49:13;4.20;;;1.88;;
11222;SDS011;5668;52.012;8.724;2022-07-29T10:51:51;3.95;;;1.70;;
11222;SDS011;5668;52.012;8.724;2022-07-29T10:54:36;3.85;;;2.00;;
11222;SDS011;5668;52.012;8.724;2022-07-29T10:57:16;4.80;;;1.75;;
11222;SDS011;5668;52.012;8.724;2022-07-29T10:59:50;3.38;;;1.70;;
11222;SDS011;5668;52.012;8.724;2022-07-29T11:02:45;4.30;;;1.60;;
11222;SDS011;5668;52.012;8.724;2022-07-29T11:05:17;2.53;;;1.60;;
11222;SDS011;5668;52.012;8.724;2022-07-29T11:10:52;2.85;;;1.70;;
11222;SDS011;5668;52.012;8.724;2022-07-29T11:13:50;3.45;;;1.90;;
11222;SDS011;5668;52.012;8.724;2022-07-29T11:16:20;2.50;;;1.42;;
11222;SDS011;5668;52.012;8.724;2022-07-29T11:21:47;6.43;;;2.17;;
11222;SDS011;5668;52.012;8.724;2022-07-29T11:24:17;6.10;;;2.03;;
11222;SDS011;5668;52.012;8.724;2022-07-29T11:29:39;2.35;;;1.80;;
11222;SDS011;5668;52.012;8.724;2022-07-29T11:32:14;4.60;;;1.88;;
11222;SDS011;5668;52.012;8.724;2022-07-29T11:34:45;3.92;;;1.88;;
11222;SDS011;5668;52.012;8.724;2022-07-29T11:37:16;2.35;;;1.83;;
11222;SDS011;5668;52.012;8.724;2022-07-29T11:39:46;2.22;;;1.50;;
11222;SDS011;5668;52.012;8.724;2022-07-29T11:42:37;4.75;;;2.00;;
11222;SDS011;5668;52.012;8.724;2022-07-29T11:45:12;3.78;;;2.10;;
11222;SDS011;5668;52.012;8.724;2022-07-29T11:47:46;3.75;;;2.08;;
11222;SDS011;5668;52.012;8.724;2022-07-29T11:50:16;3.72;;;1.65;;
11222;SDS011;5668;52.012;8.724;2022-07-29T11:52:53;4.60;;;1.85;;
11222;SDS011;5668;52.012;8.724;2022-07-29T11:55:21;2.85;;;1.75;;
11222;SDS011;5668;52.012;8.724;2022-07-29T11:57:51;5.40;;;1.77;;
11222;SDS011;5668;52.012;8.724;2022-07-29T12:00:21;4.03;;;1.90;;
11222;SDS011;5668;52.012;8.724;2022-07-29T12:02:50;5.07;;;2.33;;
11222;SDS011;5668;52.012;8.724;2022-07-29T12:05:18;5.22;;;2.17;;
11222;SDS011;5668;52.012;8.724;2022-07-29T12:07:46;10.73;;;2.63;;
11222;SDS011;5668;52.012;8.724;2022-07-29T12:10:14;4.05;;;2.08;;
11222;SDS011;5668;52.012;8.724;2022-07-29T12:12:42;5.40;;;2.38;;
11222;SDS011;5668;52.012;8.724;2022-07-29T12:15:18;3.55;;;2.28;;
11222;SDS011;5668;52.012;8.724;2022-07-29T12:17:46;4.63;;;2.17;;
11222;SDS011;5668;52.012;8.724;2022-07-29T12:20:21;3.53;;;2.00;;
11222;SDS011;5668;52.012;8.724;2022-07-29T12:25:16;3.33;;;1.90;;
11222;SDS011;5668;52.012;8.724;2022-07-29T12:27:58;3.83;;;1.90;;
11222;SDS011;5668;52.012;8.724;2022-07-29T12:30:45;5.38;;;2.10;;
11222;SDS011;5668;52.012;8.724;2022-07-29T12:33:21;5.65;;;1.90;;
11222;SDS011;5668;52.012;8.724;2022-07-29T12:35:56;3.38;;;1.80;;
11222;SDS011;5668;52.012;8.724;2022-07-29T12:38:27;3.25;;;1.67;;
11222;SDS011;5668;52.012;8.724;2022-07-29T12:41:09;9.23;;;7.40;;
11222;SDS011;5668;52.012;8.724;2022-07-29T12:43:48;6.65;;;4.15;;
11222;SDS011;5668;52.012;8.724;2022-07-29T12:46:28;2.95;;;2.10;;
11222;SDS011;5668;52.012;8.724;2022-07-29T12:49:01;4.00;;;2.15;;
11222;SDS011;5668;52.012;8.724;2022-07-29T12:51:39;4.63;;;2.00;;
11222;SDS011;5668;52.012;8.724;2022-07-29T12:54:08;4.18;;;1.80;;
11222;SDS011;5668;52.012;8.724;2022-07-29T12:56:40;5.20;;;2.30;;
11222;SDS011;5668;52.012;8.724;2022-07-29T12:59:16;5.03;;;2.13;;
11222;SDS011;5668;52.012;8.724;2022-07-29T13:01:49;4.25;;;2.30;;
11222;SDS011;5668;52.012;8.724;2022-07-29T13:04:26;6.07;;;2.03;;
11222;SDS011;5668;52.012;8.724;2022-07-29T13:07:01;4.43;;;1.80;;
11222;SDS011;5668;52.012;8.724;2022-07-29T13:09:49;5.45;;;1.85;;
11222;SDS011;5668;52.012;8.724;2022-07-29T13:12:19;2.92;;;1.52;;
11222;SDS011;5668;52.012;8.724;2022-07-29T13:14:51;3.72;;;1.65;;
11222;SDS011;5668;52.012;8.724;2022-07-29T13:17:32;3.95;;;2.20;;
11222;SDS011;5668;52.012;8.724;2022-07-29T13:20:11;4.28;;;1.77;;
11222;SDS011;5668;52.012;8.724;2022-07-29T13:23:00;5.55;;;1.88;;
11222;SDS011;5668;52.012;8.724;2022-07-29T13:28:56;2.33;;;1.48;;
11222;SDS011;5668;52.012;8.724;2022-07-29T13:31:24;4.20;;;1.83;;
11222;SDS011;5668;52.012;8.724;2022-07-29T13:36:46;4.07;;;1.92;;
11222;SDS011;5668;52.012;8.724;2022-07-29T13:39:20;4.15;;;1.70;;
11222;SDS011;5668;52.012;8.724;2022-07-29T13:41:47;3.30;;;1.70;;
11222;SDS011;5668;52.012;8.724;2022-07-29T13:44:15;5.35;;;1.95;;
11222;SDS011;5668;52.012;8.724;2022-07-29T13:46:42;3.17;;;1.50;;
11222;SDS011;5668;52.012;8.724;2022-07-29T13:49:09;4.22;;;1.80;;
11222;SDS011;5668;52.012;8.724;2022-07-29T13:51:38;2.42;;;1.45;;
11222;SDS011;5668;52.012;8.724;2022-07-29T13:54:05;4.57;;;1.75;;
11222;SDS011;5668;52.012;8.724;2022-07-29T13:56:33;5.82;;;1.83;;
11222;SDS011;5668;52.012;8.724;2022-07-29T13:59:00;3.22;;;1.58;;
11222;SDS011;5668;52.012;8.724;2022-07-29T14:01:27;4.47;;;2.00;;
11222;SDS011;5668;52.012;8.724;2022-07-29T14:03:55;3.10;;;1.70;;
11222;SDS011;5668;52.012;8.724;2022-07-29T14:06:22;6.82;;;1.70;;
11222;SDS011;5668;52.012;8.724;2022-07-29T14:08:51;2.80;;;1.55;;
11222;SDS011;5668;52.012;8.724;2022-07-29T14:11:18;3.95;;;1.70;;
11222;SDS011;5668;52.012;8.724;2022-07-29T14:13:46;3.35;;;1.52;;
11222;SDS011;5668;52.012;8.724;2022-07-29T14:16:13;2.15;;;1.60;;
11222;SDS011;5668;52.012;8.724;2022-07-29T14:18:40;4.90;;;1.85;;
11222;SDS011;5668;52.012;8.724;2022-07-29T14:21:07;5.22;;;1.60;;
11222;SDS011;5668;52.012;8.724;2022-07-29T14:23:35;2.88;;;1.77;;
11222;SDS011;5668;52.012;8.724;2022-07-29T14:26:04;3.45;;;1.60;;
11222;SDS011;5668;52.012;8.724;2022-07-29T14:28:31;3.25;;;1.60;;
11222;SDS011;5668;52.012;8.724;2022-07-29T14:30:58;3.20;;;1.60;;
11222;SDS011;5668;52.012;8.724;2022-07-29T14:33:26;4.53;;;1.60;;
11222;SDS011;5668;52.012;8.724;2022-07-29T14:35:53;3.10;;;1.90;;
11222;SDS011;5668;52.012;8.724;2022-07-29T14:38:21;3.17;;;1.40;;
11222;SDS011;5668;52.012;8.724;2022-07-29T14:40:48;2.75;;;1.60;;
11222;SDS011;5668;52.012;8.724;2022-07-29T14:43:17;2.50;;;1.60;;
11222;SDS011;5668;52.012;8.724;2022-07-29T14:45:44;5.93;;;1.90;;
11222;SDS011;5668;52.012;8.724;2022-07-29T14:48:11;6.43;;;1.70;;
11222;SDS011;5668;52.012;8.724;2022-07-29T14:50:38;4.00;;;1.92;;
11222;SDS011;5668;52.012;8.724;2022-07-29T14:53:06;2.40;;;1.67;;
11222;SDS011;5668;52.012;8.724;2022-07-29T14:55:33;2.88;;;1.77;;
11222;SDS011;5668;52.012;8.724;2022-07-29T14:58:01;3.47;;;1.90;;
11222;SDS011;5668;52.012;8.724;2022-07-29T15:00:29;3.90;;;1.90;;
11222;SDS011;5668;52.012;8.724;2022-07-29T15:02:58;3.58;;;1.90;;
11222;SDS011;5668;52.012;8.724;2022-07-29T15:05:25;4.55;;;1.77;;
11222;SDS011;5668;52.012;8.724;2022-07-29T15:07:53;4.88;;;1.67;;
11222;SDS011;5668;52.012;8.724;2022-07-29T15:10:20;4.78;;;1.92;;
11222;SDS011;5668;52.012;8.724;2022-07-29T15:12:48;3.78;;;1.92;;
11222;SDS011;5668;52.012;8.724;2022-07-29T15:15:15;4.70;;;1.80;;
11222;SDS011;5668;52.012;8.724;2022-07-29T15:17:44;2.85;;;2.00;;
11222;SDS011;5668;52.012;8.724;2022-07-29T15:20:11;2.35;;;1.85;;
11222;SDS011;5668;52.012;8.724;2022-07-29T15:22:40;3.25;;;1.83;;
11222;SDS011;5668;52.012;8.724;2022-07-29T15:25:08;4.63;;;1.92;;
11222;SDS011;5668;52.012;8.724;2022-07-29T15:27:36;3.45;;;1.60;;
11222;SDS011;5668;52.012;8.724;2022-07-29T15:30:03;7.18;;;2.13;;
11222;SDS011;5668;52.012;8.724;2022-07-29T15:32:31;11.45;;;2.20;;
11222;SDS011;5668;52.012;8.724;2022-07-29T15:34:59;6.28;;;2.00;;
11222;SDS011;5668;52.012;8.724;2022-07-29T15:37:27;5.65;;;2.17;;
11222;SDS011;5668;52.012;8.724;2022-07-29T15:39:55;5.50;;;2.10;;
11222;SDS011;5668;52.012;8.724;2022-07-29T15:42:22;6.63;;;2.00;;
11222;SDS011;5668;52.012;8.724;2022-07-29T15:44:49;4.65;;;1.88;;
11222;SDS011;5668;52.012;8.724;2022-07-29T15:47:16;4.88;;;1.95;;
11222;SDS011;5668;52.012;8.724;2022-07-29T15:49:44;5.47;;;2.00;;
11222;SDS011;5668;52.012;8.724;2022-07-29T15:52:12;7.05;;;2.22;;